createdAt,value
2022-08-07T00:02:35.435Z,1.50
2022-08-07T00:04:09.493Z,1.65
2022-08-07T00:06:41.126Z,1.85
2022-08-07T00:09:22.637Z,1.65
2022-08-07T00:11:56.069Z,1.67
2022-08-07T00:14:31.038Z,1.52
2022-08-07T00:17:01.702Z,1.50
2022-08-07T00:20:00.173Z,1.70
2022-08-07T00:22:24.860Z,1.60
2022-08-07T00:25:11.172Z,1.33
2022-08-07T00:27:53.274Z,1.27
2022-08-07T00:30:27.382Z,1.30
2022-08-07T00:33:01.063Z,1.40
2022-08-07T00:35:30.482Z,1.60
2022-08-07T00:38:01.675Z,1.30
2022-08-07T00:40:39.687Z,1.15
2022-08-07T00:44:00.854Z,1.58
2022-08-07T00:46:02.245Z,1.52
2022-08-07T00:48:32.199Z,1.45
2022-08-07T00:51:01.246Z,1.80
2022-08-07T00:53:38.404Z,1.50
2022-08-07T00:56:13.888Z,1.63
2022-08-07T00:58:46.579Z,1.45
2022-08-07T01:01:17.538Z,1.33
2022-08-07T01:03:56.283Z,1.50
2022-08-07T01:06:30.024Z,1.52
2022-08-07T01:09:01.179Z,1.40
2022-08-07T01:12:26.539Z,2.42
2022-08-07T01:14:21.118Z,1.70
2022-08-07T01:16:56.343Z,1.87
2022-08-07T01:19:26.823Z,1.30
2022-08-07T01:21:55.675Z,1.83
2022-08-07T01:24:31.026Z,1.50
2022-08-07T01:27:00.860Z,1.23
2022-08-07T01:29:33.945Z,1.57
2022-08-07T01:32:05.427Z,1.27
2022-08-07T01:34:34.275Z,1.30
2022-08-07T01:37:17.232Z,1.50
2022-08-07T01:39:48.106Z,1.58
2022-08-07T01:42:40.292Z,1.53
2022-08-07T01:45:18.232Z,1.58
2022-08-07T01:48:29.896Z,1.38
2022-08-07T01:50:46.949Z,1.58
2022-08-07T01:53:21.902Z,1.60
2022-08-07T01:56:15.019Z,1.50
2022-08-07T01:59:01.125Z,1.58
2022-08-07T02:02:01.691Z,1.50
2022-08-07T02:04:28.848Z,1.58
2022-08-07T02:07:03.099Z,1.63
2022-08-07T02:09:51.818Z,1.60
2022-08-07T02:12:29.310Z,1.65
2022-08-07T02:15:01.717Z,1.75
2022-08-07T02:17:49.481Z,1.38
2022-08-07T02:20:23.366Z,1.63
2022-08-07T02:22:59.826Z,1.30
2022-08-07T02:26:10.021Z,1.40
2022-08-07T02:28:25.459Z,1.25
2022-08-07T02:30:59.145Z,1.52
2022-08-07T02:33:42.166Z,1.50
2022-08-07T02:36:29.776Z,1.57
2022-08-07T02:39:16.082Z,1.45
2022-08-07T02:41:54.329Z,1.27
2022-08-07T02:44:27.730Z,1.45
2022-08-07T02:47:06.174Z,1.40
2022-08-07T02:49:58.572Z,1.63
2022-08-07T02:52:37.582Z,1.27
2022-08-07T02:55:28.033Z,1.70
2022-08-07T02:58:06.686Z,1.23
2022-08-07T03:00:40.881Z,1.42
2022-08-07T03:03:22.614Z,1.70
2022-08-07T03:05:54.865Z,1.70
2022-08-07T03:08:29.133Z,1.40
2022-08-07T03:10:59.748Z,1.40
2022-08-07T03:13:39.026Z,1.20
2022-08-07T03:16:18.018Z,1.40
2022-08-07T03:18:52.302Z,1.40
2022-08-07T03:21:20.841Z,1.67
2022-08-07T03:24:19.036Z,1.40
2022-08-07T03:26:58.358Z,1.17
2022-08-07T03:29:38.719Z,1.10
2022-08-07T03:32:15.914Z,1.30
2022-08-07T03:35:16.937Z,1.50
2022-08-07T03:37:46.470Z,1.30
2022-08-07T03:40:30.805Z,1.48
2022-08-07T03:43:10.031Z,1.10
2022-08-07T03:45:47.582Z,0.98
2022-08-07T03:48:18.701Z,1.27
2022-08-07T03:50:56.169Z,1.10
2022-08-07T03:54:05.915Z,1.17
2022-08-07T03:56:33.362Z,0.97
2022-08-07T03:59:12.810Z,1.60
2022-08-07T04:01:46.143Z,1.23
2022-08-07T04:04:17.963Z,1.20
2022-08-07T04:06:50.862Z,1.00
2022-08-07T04:09:23.313Z,1.20
2022-08-07T04:12:26.748Z,0.90
2022-08-07T04:14:47.739Z,0.80
2022-08-07T04:17:20.962Z,1.30
2022-08-07T04:19:53.974Z,1.70
2022-08-07T04:22:29.306Z,1.20
2022-08-07T04:25:02.137Z,1.40
2022-08-07T04:27:36.256Z,1.83
2022-08-07T04:30:35.928Z,1.50
2022-08-07T04:33:24.343Z,1.50
2022-08-07T04:35:54.484Z,1.23
2022-08-07T04:38:28.301Z,1.83
2022-08-07T04:40:57.997Z,1.42
2022-08-07T04:44:12.334Z,1.42
2022-08-07T04:46:59.398Z,1.27
2022-08-07T04:49:40.293Z,1.40
2022-08-07T04:52:55.946Z,1.50
2022-08-07T04:58:11.155Z,1.45
2022-08-07T04:59:09.210Z,1.20
2022-08-07T05:01:31.454Z,1.23
2022-08-07T05:04:07.589Z,1.20
2022-08-07T05:06:51.529Z,1.15
2022-08-07T05:09:46.282Z,1.00
2022-08-07T05:12:27.268Z,1.35
2022-08-07T05:15:21.693Z,1.10
2022-08-07T05:18:08.765Z,1.27
2022-08-07T05:20:42.869Z,1.20
2022-08-07T05:23:30.904Z,1.20
2022-08-07T05:26:13.471Z,1.05
2022-08-07T05:28:57.485Z,1.27
2022-08-07T05:31:34.972Z,1.10
2022-08-07T05:34:11.932Z,1.10
2022-08-07T05:36:48.983Z,1.20
2022-08-07T05:40:16.797Z,1.30
2022-08-07T05:42:37.003Z,0.95
2022-08-07T05:45:25.783Z,1.43
2022-08-07T05:48:01.913Z,1.13
2022-08-07T05:50:39.494Z,0.98
2022-08-07T05:54:12.731Z,1.00
2022-08-07T05:56:03.085Z,1.20
2022-08-07T05:58:37.612Z,1.10
2022-08-07T06:01:12.348Z,1.00
2022-08-07T06:03:56.410Z,0.85
2022-08-07T06:06:29.792Z,0.90
2022-08-07T06:09:04.706Z,0.93
2022-08-07T06:11:36.125Z,0.80
2022-08-07T06:14:13.255Z,1.10
2022-08-07T06:16:56.205Z,1.00
2022-08-07T06:19:49.927Z,0.80
2022-08-07T06:22:23.817Z,0.82
2022-08-07T06:25:34.785Z,0.70
2022-08-07T06:28:08.909Z,0.68
2022-08-07T06:30:45.821Z,0.93
2022-08-07T06:33:20.256Z,0.77
2022-08-07T06:36:06.798Z,0.60
2022-08-07T06:38:59.475Z,1.20
2022-08-07T06:42:35.311Z,1.00
2022-08-07T06:45:17.880Z,0.85
2022-08-07T06:47:58.967Z,0.60
2022-08-07T06:50:47.770Z,0.85
2022-08-07T06:55:29.149Z,0.70
2022-08-07T06:56:15.105Z,0.88
2022-08-07T07:00:13.579Z,0.80
2022-08-07T07:01:42.001Z,0.68
2022-08-07T07:04:32.659Z,0.70
2022-08-07T07:07:10.416Z,0.40
2022-08-07T07:09:48.793Z,0.40
2022-08-07T07:12:30.700Z,0.40
2022-08-07T07:15:23.941Z,0.50
2022-08-07T07:18:14.733Z,0.30
2022-08-07T07:21:13.671Z,0.40
2022-08-07T07:24:05.930Z,0.60
2022-08-07T07:26:39.737Z,0.65
2022-08-07T07:29:39.867Z,0.43
2022-08-07T07:32:08.275Z,0.30
2022-08-07T07:34:40.747Z,0.47
2022-08-07T07:37:21.650Z,0.50
2022-08-07T07:40:14.575Z,0.40
2022-08-07T07:42:47.131Z,0.40
2022-08-07T07:46:35.743Z,0.50
2022-08-07T07:48:34.871Z,0.40
2022-08-07T07:51:08.116Z,0.30
2022-08-07T07:53:51.409Z,0.40
2022-08-07T07:56:30.409Z,0.30
2022-08-07T07:59:04.371Z,0.50
2022-08-07T08:02:03.776Z,0.30
2022-08-07T08:04:28.045Z,0.40
2022-08-07T08:06:56.384Z,0.45
2022-08-07T08:09:29.955Z,0.30
2022-08-07T08:12:03.060Z,0.20
2022-08-07T08:14:37.022Z,0.43
2022-08-07T08:17:56.265Z,0.30
2022-08-07T08:20:17.115Z,0.30
2022-08-07T08:23:14.421Z,0.30
2022-08-07T08:26:06.961Z,0.20
2022-08-07T08:28:44.880Z,0.20
2022-08-07T08:31:29.874Z,0.25
2022-08-07T08:33:59.112Z,0.30
2022-08-07T08:36:30.315Z,0.40
2022-08-07T08:39:01.942Z,0.40
2022-08-07T08:41:59.427Z,0.33
2022-08-07T08:44:48.696Z,0.30
2022-08-07T08:47:47.455Z,0.30
2022-08-07T08:50:39.570Z,0.20
2022-08-07T08:53:41.354Z,0.38
2022-08-07T08:56:16.852Z,0.30
2022-08-07T08:59:06.480Z,0.20
2022-08-07T09:01:49.142Z,0.20
2022-08-07T09:04:36.704Z,0.30
2022-08-07T09:07:45.944Z,0.28
2022-08-07T09:10:21.473Z,0.30
2022-08-07T09:13:11.029Z,0.30
2022-08-07T09:16:24.755Z,0.20
2022-08-07T09:18:58.393Z,0.20
2022-08-07T09:22:22.656Z,0.20
2022-08-07T09:25:14.511Z,0.20
2022-08-07T09:27:54.518Z,0.20
2022-08-07T09:30:40.379Z,0.30
2022-08-07T09:33:57.580Z,0.32
2022-08-07T09:36:37.022Z,0.40
2022-08-07T09:39:55.489Z,0.20
2022-08-07T09:42:52.832Z,0.10
2022-08-07T09:47:42.586Z,0.30
2022-08-07T09:50:02.458Z,0.20
2022-08-07T09:52:15.973Z,0.20
2022-08-07T09:54:47.911Z,0.30
2022-08-07T09:57:46.451Z,0.20
2022-08-07T10:00:20.619Z,0.35
2022-08-07T10:04:05.331Z,0.50
2022-08-07T10:06:19.695Z,0.30
2022-08-07T10:09:10.458Z,0.17
2022-08-07T10:12:52.914Z,0.17
2022-08-07T10:15:46.426Z,0.30
2022-08-07T10:18:32.318Z,0.20
2022-08-07T10:22:13.972Z,0.20
2022-08-07T10:24:59.742Z,0.23
2022-08-07T10:27:30.257Z,0.20
2022-08-07T10:30:20.406Z,0.20
2022-08-07T10:33:03.470Z,0.20
2022-08-07T10:35:55.724Z,0.22
2022-08-07T10:38:48.716Z,0.20
2022-08-07T10:41:52.368Z,0.20
2022-08-07T10:44:54.601Z,0.20
2022-08-07T10:47:54.463Z,0.20
2022-08-07T10:50:35.600Z,0.20
2022-08-07T10:53:25.107Z,0.10
2022-08-07T10:56:30.838Z,0.20
2022-08-07T10:59:15.666Z,0.20
2022-08-07T11:02:33.358Z,0.20
2022-08-07T11:05:19.283Z,0.40
2022-08-07T11:08:02.793Z,0.40
2022-08-07T11:11:00.096Z,0.30
2022-08-07T11:14:44.215Z,0.32
2022-08-07T11:16:52.801Z,0.30
2022-08-07T11:19:50.244Z,0.30
2022-08-07T11:22:43.977Z,0.30
2022-08-07T11:25:19.775Z,0.50
2022-08-07T11:28:04.881Z,0.20
2022-08-07T11:30:48.160Z,0.30
2022-08-07T11:33:54.047Z,0.40
2022-08-07T11:36:30.800Z,0.40
2022-08-07T11:39:01.851Z,0.30
2022-08-07T11:42:02.018Z,0.30
2022-08-07T11:44:34.456Z,0.30
2022-08-07T11:47:38.522Z,0.30
2022-08-07T11:50:32.274Z,0.27
2022-08-07T11:53:09.897Z,0.38
2022-08-07T11:56:25.715Z,0.20
2022-08-07T12:00:08.047Z,0.30
2022-08-07T12:02:30.513Z,0.30
2022-08-07T12:05:41.745Z,0.20
2022-08-07T12:08:38.533Z,0.20
2022-08-07T12:11:21.386Z,0.20
2022-08-07T12:14:08.514Z,0.30
2022-08-07T12:16:52.088Z,0.28
2022-08-07T12:20:04.744Z,0.20
2022-08-07T12:22:58.433Z,0.28
2022-08-07T12:26:05.837Z,0.30
2022-08-07T12:28:53.853Z,0.30
2022-08-07T12:31:52.985Z,0.50
2022-08-07T12:34:21.321Z,0.20
2022-08-07T12:36:54.764Z,0.40
2022-08-07T12:39:44.049Z,0.30
2022-08-07T12:42:22.783Z,0.40
2022-08-07T12:45:28.545Z,0.43
2022-08-07T12:48:28.500Z,0.40
2022-08-07T12:51:17.550Z,0.30
2022-08-07T12:54:03.321Z,0.30
2022-08-07T12:56:51.425Z,0.30
2022-08-07T12:59:37.105Z,0.30
2022-08-07T13:03:01.061Z,0.20
2022-08-07T13:06:03.524Z,0.30
2022-08-07T13:09:12.694Z,0.30
2022-08-07T13:12:02.099Z,0.43
2022-08-07T13:15:01.913Z,0.30
2022-08-07T13:17:46.875Z,0.20
2022-08-07T13:20:27.759Z,0.20
2022-08-07T13:24:00.064Z,0.38
2022-08-07T13:26:00.878Z,0.30
2022-08-07T13:28:38.154Z,0.40
2022-08-07T13:31:13.256Z,0.40
2022-08-07T13:34:31.778Z,0.30
2022-08-07T13:36:47.766Z,0.45
2022-08-07T13:40:32.716Z,0.30
2022-08-07T13:42:26.933Z,0.30
2022-08-07T13:46:06.187Z,0.40
2022-08-07T13:48:05.530Z,0.30
2022-08-07T13:50:45.082Z,0.38
2022-08-07T13:53:59.882Z,0.30
2022-08-07T13:56:35.980Z,0.35
2022-08-07T13:59:15.833Z,0.33
2022-08-07T14:01:59.401Z,0.40
2022-08-07T14:04:49.557Z,0.50
2022-08-07T14:07:23.090Z,0.32
2022-08-07T14:10:14.966Z,0.40
2022-08-07T14:13:00.589Z,0.40
2022-08-07T14:15:32.025Z,0.40
2022-08-07T14:18:24.041Z,0.40
2022-08-07T14:21:21.050Z,0.35
2022-08-07T14:24:12.870Z,0.50
2022-08-07T14:26:51.132Z,0.50
2022-08-07T14:30:09.509Z,0.50
2022-08-07T14:32:21.640Z,0.50
2022-08-07T14:34:54.518Z,0.50
2022-08-07T14:37:23.733Z,0.57
2022-08-07T14:40:26.284Z,0.70
2022-08-07T14:43:55.467Z,0.73
2022-08-07T14:46:00.883Z,0.60
2022-08-07T14:48:35.911Z,0.70
2022-08-07T14:54:09.992Z,0.90
2022-08-07T14:56:52.303Z,0.70
2022-08-07T15:00:05.568Z,0.80
2022-08-07T15:02:32.024Z,1.10
2022-08-07T15:05:04.495Z,1.10
2022-08-07T15:08:01.173Z,1.77
2022-08-07T15:10:58.571Z,1.10
2022-08-07T15:13:35.872Z,1.10
2022-08-07T15:16:11.428Z,1.58
2022-08-07T15:18:51.683Z,1.40
2022-08-07T15:21:44.205Z,1.60
2022-08-07T15:25:14.758Z,1.20
2022-08-07T15:27:34.291Z,1.23
2022-08-07T15:36:01.176Z,1.47
2022-08-07T15:38:59.040Z,1.50
2022-08-07T15:44:19.701Z,1.45
2022-08-07T15:50:06.077Z,1.40
2022-08-07T15:52:38.231Z,1.20
2022-08-07T15:55:12.173Z,1.60
2022-08-07T15:57:48.624Z,1.58
2022-08-07T16:00:30.987Z,1.70
2022-08-07T16:03:20.977Z,1.53
2022-08-07T16:06:07.103Z,2.00
2022-08-07T16:08:42.642Z,2.10
2022-08-07T16:11:48.957Z,1.80
2022-08-07T16:14:32.154Z,2.10
2022-08-07T16:18:01.624Z,2.30
2022-08-07T16:20:34.248Z,2.70
2022-08-07T16:23:54.557Z,2.35
2022-08-07T16:26:30.722Z,2.70
2022-08-07T16:30:05.550Z,2.60
2022-08-07T16:32:03.918Z,2.63
2022-08-07T16:34:49.849Z,2.28
2022-08-07T16:38:04.777Z,1.90
2022-08-07T16:41:12.034Z,2.38
2022-08-07T16:44:31.803Z,2.25
2022-08-07T16:47:11.866Z,2.13
2022-08-07T16:50:27.837Z,2.00
2022-08-07T16:54:02.343Z,2.17
2022-08-07T16:56:20.816Z,2.10
2022-08-07T16:59:10.698Z,1.65
2022-08-07T17:02:14.181Z,1.50
2022-08-07T17:06:02.225Z,1.48
2022-08-07T17:09:10.891Z,1.95
2022-08-07T17:12:34.509Z,1.30
2022-08-07T17:15:03.469Z,1.30
2022-08-07T17:17:47.332Z,1.23
2022-08-07T17:20:41.895Z,1.20
2022-08-07T17:23:32.471Z,1.60
2022-08-07T17:26:24.318Z,1.30
2022-08-07T17:28:58.074Z,1.40
2022-08-07T17:31:44.449Z,1.33
2022-08-07T17:34:57.200Z,1.40
2022-08-07T17:38:09.412Z,1.80
2022-08-07T17:40:30.254Z,1.60
2022-08-07T17:43:18.539Z,1.45
2022-08-07T17:46:08.262Z,2.23
2022-08-07T17:48:49.563Z,1.55
2022-08-07T17:51:24.389Z,1.45
2022-08-07T17:54:29.538Z,1.73
2022-08-07T17:57:58.679Z,1.80
2022-08-07T18:00:48.998Z,1.70
2022-08-07T18:04:04.673Z,2.03
2022-08-07T18:06:38.119Z,1.33
2022-08-07T18:09:08.623Z,1.58
2022-08-07T18:12:16.451Z,1.98
2022-08-07T18:14:54.537Z,2.03
2022-08-07T18:18:45.046Z,2.17
2022-08-07T18:21:07.067Z,1.63
2022-08-07T18:24:02.727Z,1.70
2022-08-07T18:27:01.993Z,1.77
2022-08-07T18:30:07.391Z,2.27
2022-08-07T18:33:11.062Z,2.15
2022-08-07T18:36:08.135Z,1.42
2022-08-07T18:38:57.071Z,1.60
2022-08-07T18:41:46.281Z,1.63
2022-08-07T18:45:43.415Z,2.30
2022-08-07T18:48:05.701Z,1.83
2022-08-07T18:50:56.134Z,1.80
2022-08-07T18:53:36.600Z,1.80
2022-08-07T18:56:38.975Z,2.08
2022-08-07T18:59:47.981Z,2.43
2022-08-07T19:02:52.552Z,1.67
2022-08-07T19:06:02.819Z,2.50
2022-08-07T19:08:31.305Z,2.17
2022-08-07T19:11:06.850Z,2.00
2022-08-07T19:13:52.801Z,2.00
2022-08-07T19:17:05.460Z,1.70
2022-08-07T19:19:46.787Z,1.80
2022-08-07T19:22:36.204Z,2.40
2022-08-07T19:26:22.644Z,1.67
2022-08-07T19:28:29.693Z,2.00
2022-08-07T19:31:42.837Z,1.52
2022-08-07T19:34:33.991Z,1.70
2022-08-07T19:37:17.801Z,1.77
2022-08-07T19:39:57.481Z,1.60
2022-08-07T19:42:31.719Z,1.90
2022-08-07T19:46:04.874Z,1.52
2022-08-07T19:48:02.891Z,1.80
2022-08-07T19:50:44.117Z,1.65
2022-08-07T19:54:33.903Z,1.30
2022-08-07T19:56:58.592Z,1.80
2022-08-07T19:58:58.401Z,1.40
2022-08-07T20:01:52.863Z,1.30
2022-08-07T20:04:32.237Z,1.98
2022-08-07T20:07:10.033Z,1.85
2022-08-07T20:10:36.511Z,1.77
2022-08-07T20:12:42.879Z,1.67
2022-08-07T20:15:22.037Z,1.30
2022-08-07T20:18:01.729Z,1.48
2022-08-07T20:20:33.411Z,1.83
2022-08-07T20:23:23.419Z,1.53
2022-08-07T20:25:56.184Z,1.60
2022-08-07T20:28:29.972Z,2.88
2022-08-07T20:30:59.328Z,1.60
2022-08-07T20:33:37.929Z,1.67
2022-08-07T20:36:09.852Z,1.70
2022-08-07T20:38:53.294Z,2.00
2022-08-07T20:41:28.964Z,2.22
2022-08-07T20:44:10.436Z,2.03
2022-08-07T20:46:43.731Z,1.95
2022-08-07T20:49:58.976Z,1.90
2022-08-07T20:52:17.281Z,1.80
2022-08-07T20:54:53.213Z,1.70
2022-08-07T20:57:28.125Z,1.75
2022-08-07T21:00:09.526Z,1.65
2022-08-07T21:02:58.710Z,1.80
2022-08-07T21:05:51.019Z,1.80
2022-08-07T21:08:36.891Z,2.00
2022-08-07T21:11:10.733Z,2.08
2022-08-07T21:14:16.665Z,1.73
2022-08-07T21:17:06.524Z,1.90
2022-08-07T21:19:50.780Z,1.55
2022-08-07T21:22:20.826Z,1.70
2022-08-07T21:25:13.769Z,2.10
2022-08-07T21:27:47.315Z,1.98
2022-08-07T21:30:18.979Z,1.87
2022-08-07T21:33:04.477Z,1.88
2022-08-07T21:36:04.476Z,2.17
2022-08-07T21:39:46.809Z,2.10
2022-08-07T21:42:37.541Z,1.83
2022-08-07T21:46:05.436Z,2.40
2022-08-07T21:48:28.743Z,1.90
2022-08-07T21:51:25.051Z,2.33
2022-08-07T21:54:20.108Z,1.90
2022-08-07T21:57:15.888Z,1.77
2022-08-07T22:00:22.213Z,1.77
2022-08-07T22:02:58.341Z,2.10
2022-08-07T22:05:46.157Z,2.05
2022-08-07T22:08:23.367Z,1.83
2022-08-07T22:10:57.983Z,2.22
2022-08-07T22:13:50.907Z,1.80
2022-08-07T22:16:44.259Z,3.17
2022-08-07T22:19:29.484Z,2.33
2022-08-07T22:22:20.920Z,1.90
2022-08-07T22:24:55.172Z,2.22
2022-08-07T22:28:07.801Z,2.33
2022-08-07T22:31:45.078Z,2.05
2022-08-07T22:34:13.667Z,2.50
2022-08-07T22:36:52.517Z,2.50
2022-08-07T22:39:23.943Z,2.30
2022-08-07T22:42:19.590Z,2.83
2022-08-07T22:45:03.748Z,2.38
2022-08-07T22:47:31.791Z,2.00
2022-08-07T22:50:07.170Z,2.30
2022-08-07T22:52:39.902Z,2.40
2022-08-07T22:55:39.967Z,2.10
2022-08-07T22:58:28.033Z,2.17
2022-08-07T23:01:22.256Z,1.92
2022-08-07T23:04:57.967Z,2.40
2022-08-07T23:07:41.527Z,2.90
2022-08-07T23:10:41.116Z,2.43
2022-08-07T23:13:21.389Z,2.13
2022-08-07T23:16:48.400Z,2.10
2022-08-07T23:19:47.998Z,2.10
2022-08-07T23:22:49.769Z,2.30
2022-08-07T23:25:31.928Z,1.93
2022-08-07T23:28:33.360Z,2.33
2022-08-07T23:32:49.528Z,2.55
2022-08-07T23:34:41.134Z,2.03
2022-08-07T23:38:00.915Z,1.85
2022-08-07T23:40:33.980Z,2.30
2022-08-07T23:43:16.922Z,1.90
2022-08-07T23:46:11.152Z,2.30
2022-08-07T23:49:20.106Z,2.63
2022-08-07T23:53:00.046Z,2.20
2022-08-07T23:54:53.008Z,1.83
2022-08-07T23:57:28.185Z,2.40
